createdAt,value
2023-04-07T00:00:26.885Z,44.61
2023-04-07T00:02:54.050Z,44.93
2023-04-07T00:05:20.981Z,44.49
2023-04-07T00:07:55.918Z,44.45
2023-04-07T00:10:24.181Z,45.73
2023-04-07T00:12:50.873Z,47.91
2023-04-07T00:15:17.588Z,47.15
2023-04-07T00:17:44.337Z,46.00
2023-04-07T00:20:12.429Z,45.76
2023-04-07T00:22:39.069Z,46.52
2023-04-07T00:25:06.326Z,47.21
2023-04-07T00:27:32.949Z,46.21
2023-04-07T00:29:59.579Z,45.97
2023-04-07T00:32:26.269Z,45.41
2023-04-07T00:34:52.931Z,46.74
2023-04-07T00:37:19.603Z,46.73
2023-04-07T00:39:46.881Z,47.03
2023-04-07T00:42:13.659Z,46.40
2023-04-07T00:44:40.591Z,45.53
2023-04-07T00:47:07.280Z,46.42
2023-04-07T00:49:34.177Z,46.37
2023-04-07T00:52:01.391Z,46.11
2023-04-07T00:54:30.356Z,45.79
2023-04-07T00:56:57.633Z,46.95
2023-04-07T00:59:25.297Z,46.27
2023-04-07T01:02:13.569Z,46.42
2023-04-07T01:04:54.675Z,47.57
2023-04-07T01:07:34.895Z,47.88
2023-04-07T01:10:06.645Z,48.73
2023-04-07T01:12:42.003Z,48.60
2023-04-07T01:15:11.315Z,47.97
2023-04-07T01:17:45.603Z,47.61
2023-04-07T01:20:19.713Z,47.23
2023-04-07T01:22:51.348Z,46.19
2023-04-07T01:25:34.484Z,46.03
2023-04-07T01:28:01.514Z,45.82
2023-04-07T01:30:33.435Z,45.73
2023-04-07T01:33:01.821Z,46.15
2023-04-07T01:35:32.465Z,47.41
2023-04-07T01:38:00.492Z,47.82
2023-04-07T01:40:29.333Z,47.22
2023-04-07T01:42:58.038Z,47.91
2023-04-07T01:45:26.701Z,48.96
2023-04-07T01:47:54.872Z,47.85
2023-04-07T01:50:22.378Z,47.87
2023-04-07T01:52:49.643Z,47.25
2023-04-07T01:55:16.545Z,46.98
2023-04-07T01:57:43.204Z,48.89
2023-04-07T02:00:10.305Z,49.59
2023-04-07T02:02:40.998Z,50.93
2023-04-07T02:05:12.668Z,51.09
2023-04-07T02:08:03.937Z,50.06
2023-04-07T02:10:35.692Z,50.02
2023-04-07T02:13:05.445Z,49.57
2023-04-07T02:15:32.323Z,49.86
2023-04-07T02:18:00.942Z,49.40
2023-04-07T02:20:29.694Z,49.21
2023-04-07T02:22:56.569Z,49.19
2023-04-07T02:25:30.417Z,48.33
2023-04-07T02:27:58.887Z,48.63
2023-04-07T02:30:26.413Z,47.56
2023-04-07T02:32:53.809Z,47.32
2023-04-07T02:35:21.156Z,47.49
2023-04-07T02:37:47.930Z,47.32
2023-04-07T02:40:14.678Z,47.40
2023-04-07T02:42:41.748Z,46.65
2023-04-07T02:45:09.785Z,46.59
2023-04-07T02:47:37.720Z,48.13
2023-04-07T02:50:05.005Z,48.19
2023-04-07T02:52:31.683Z,49.12
2023-04-07T02:54:58.320Z,48.01
2023-04-07T02:57:24.973Z,47.73
2023-04-07T02:59:51.628Z,47.47
2023-04-07T03:02:18.307Z,48.02
2023-04-07T03:04:44.948Z,47.59
2023-04-07T03:07:11.538Z,47.59
2023-04-07T03:09:38.143Z,48.05
2023-04-07T03:12:04.833Z,48.81
2023-04-07T03:14:31.574Z,48.08
2023-04-07T03:16:58.171Z,48.42
2023-04-07T03:19:24.850Z,47.93
2023-04-07T03:21:51.731Z,48.38
2023-04-07T03:24:18.590Z,50.57
2023-04-07T03:26:45.273Z,49.44
2023-04-07T03:29:11.938Z,49.28
2023-04-07T03:31:38.593Z,49.10
2023-04-07T03:34:05.459Z,50.49
2023-04-07T03:36:32.121Z,50.03
2023-04-07T03:38:58.797Z,52.16
2023-04-07T03:41:25.543Z,51.15
2023-04-07T03:43:52.469Z,49.72
2023-04-07T03:46:22.439Z,49.91
2023-04-07T03:48:49.146Z,49.01
2023-04-07T03:51:16.222Z,48.56
2023-04-07T03:53:42.897Z,48.20
2023-04-07T03:56:09.847Z,51.14
2023-04-07T03:58:36.540Z,50.80
2023-04-07T04:01:03.475Z,50.51
2023-04-07T04:03:30.434Z,49.44
2023-04-07T04:05:57.178Z,48.68
2023-04-07T04:08:24.140Z,48.71
2023-04-07T04:10:51.334Z,48.35
2023-04-07T04:13:17.965Z,48.07
2023-04-07T04:15:44.580Z,49.48
2023-04-07T04:18:11.659Z,49.88
2023-04-07T04:20:38.364Z,49.43
2023-04-07T04:23:05.046Z,48.78
2023-04-07T04:25:31.703Z,49.79
2023-04-07T04:27:58.285Z,49.08
2023-04-07T04:30:24.910Z,49.81
2023-04-07T04:32:51.770Z,51.37
2023-04-07T04:35:18.465Z,52.65
2023-04-07T04:37:45.123Z,51.65
2023-04-07T04:40:12.172Z,50.53
2023-04-07T04:42:38.800Z,50.55
2023-04-07T04:45:06.118Z,51.26
2023-04-07T04:47:32.739Z,51.13
2023-04-07T04:49:59.555Z,50.34
2023-04-07T04:52:27.338Z,50.55
2023-04-07T04:54:54.024Z,50.62
2023-04-07T04:57:20.636Z,49.75
2023-04-07T04:59:47.375Z,50.98
2023-04-07T05:02:14.072Z,51.84
2023-04-07T05:04:41.132Z,51.12
2023-04-07T05:07:07.794Z,50.81
2023-04-07T05:09:34.450Z,51.09
2023-04-07T05:12:02.612Z,52.51
2023-04-07T05:14:29.298Z,51.87
2023-04-07T05:16:55.971Z,51.70
2023-04-07T05:19:22.702Z,51.29
2023-04-07T05:21:49.300Z,51.08
2023-04-07T05:24:15.937Z,51.45
2023-04-07T05:26:42.521Z,51.03
2023-04-07T05:29:09.147Z,50.89
2023-04-07T05:31:37.485Z,50.19
2023-04-07T05:34:04.198Z,52.39
2023-04-07T05:36:31.828Z,51.25
2023-04-07T05:38:58.505Z,49.75
2023-04-07T05:41:25.157Z,49.72
2023-04-07T05:43:52.121Z,50.67
2023-04-07T05:46:19.121Z,51.47
2023-04-07T05:48:45.908Z,51.07
2023-04-07T05:51:12.499Z,50.62
2023-04-07T05:53:39.155Z,49.04
2023-04-07T05:56:06.179Z,50.02
2023-04-07T05:58:33.030Z,49.77
2023-04-07T06:00:59.664Z,48.59
2023-04-07T06:03:26.563Z,49.02
2023-04-07T06:05:53.365Z,49.39
2023-04-07T06:08:20.072Z,50.50
2023-04-07T06:10:46.844Z,50.74
2023-04-07T06:13:13.452Z,51.26
2023-04-07T06:15:40.158Z,51.53
2023-04-07T06:18:06.989Z,50.54
2023-04-07T06:20:33.672Z,49.74
2023-04-07T06:23:00.254Z,50.55
2023-04-07T06:25:26.933Z,49.36
2023-04-07T06:27:54.964Z,48.62
2023-04-07T06:30:21.686Z,49.09
2023-04-07T06:32:48.368Z,49.45
2023-04-07T06:35:15.020Z,49.83
2023-04-07T06:37:41.716Z,50.93
2023-04-07T06:40:08.868Z,50.20
2023-04-07T06:42:35.504Z,49.28
2023-04-07T06:45:02.212Z,50.16
2023-04-07T06:47:29.359Z,49.68
2023-04-07T06:49:56.117Z,50.36
2023-04-07T06:52:22.928Z,50.62
2023-04-07T06:54:49.594Z,49.83
2023-04-07T06:57:16.306Z,49.11
2023-04-07T06:59:43.111Z,49.80
2023-04-07T07:02:09.962Z,51.13
2023-04-07T07:04:37.028Z,51.14
2023-04-07T07:07:03.960Z,50.37
2023-04-07T07:09:30.651Z,51.11
2023-04-07T07:11:57.734Z,50.54
2023-04-07T07:14:24.413Z,50.90
2023-04-07T07:16:51.116Z,50.76
2023-04-07T07:19:17.783Z,50.61
2023-04-07T07:21:44.666Z,51.20
2023-04-07T07:24:11.463Z,49.85
2023-04-07T07:26:38.068Z,49.53
2023-04-07T07:29:04.691Z,49.01
2023-04-07T07:31:31.650Z,47.70
2023-04-07T07:33:58.486Z,46.61
2023-04-07T07:36:25.230Z,46.83
2023-04-07T07:38:51.997Z,46.57
2023-04-07T07:41:18.854Z,46.29
2023-04-07T07:43:46.058Z,44.01
2023-04-07T07:46:12.960Z,44.28
2023-04-07T07:48:39.697Z,44.87
2023-04-07T07:51:06.684Z,44.87
2023-04-07T07:53:33.326Z,42.46
2023-04-07T07:56:00.171Z,44.20
2023-04-07T07:58:26.929Z,42.94
2023-04-07T08:00:53.714Z,42.38
2023-04-07T08:03:23.006Z,43.33
2023-04-07T08:05:49.806Z,41.43
2023-04-07T08:08:16.476Z,41.00
2023-04-07T08:10:43.149Z,41.13
2023-04-07T08:13:09.828Z,40.00
2023-04-07T08:15:36.525Z,40.55
2023-04-07T08:18:04.896Z,38.70
2023-04-07T08:20:32.498Z,39.19
2023-04-07T08:23:02.204Z,39.83
2023-04-07T08:25:29.595Z,44.39
2023-04-07T08:27:56.622Z,43.48
2023-04-07T08:30:23.733Z,41.68
2023-04-07T08:32:50.485Z,43.31
2023-04-07T08:35:17.148Z,41.50
2023-04-07T08:37:44.554Z,41.27
2023-04-07T08:40:12.520Z,40.45
2023-04-07T08:42:42.382Z,41.33
2023-04-07T08:45:10.081Z,42.85
2023-04-07T08:47:37.819Z,42.92
2023-04-07T08:50:09.642Z,42.92
2023-04-07T08:52:50.842Z,40.43
2023-04-07T08:55:17.519Z,39.35
2023-04-07T08:57:44.210Z,40.06
2023-04-07T09:00:11.736Z,39.25
2023-04-07T09:02:47.941Z,38.71
2023-04-07T09:05:14.955Z,39.08
2023-04-07T09:07:43.369Z,38.74
2023-04-07T09:10:10.500Z,38.13
2023-04-07T09:12:37.845Z,38.91
2023-04-07T09:15:07.044Z,38.96
2023-04-07T09:17:33.735Z,38.16
2023-04-07T09:20:01.149Z,38.13
2023-04-07T09:22:47.316Z,39.12
2023-04-07T09:25:26.461Z,38.50
2023-04-07T09:28:01.452Z,40.71
2023-04-07T09:30:29.682Z,37.93
2023-04-07T09:32:57.512Z,36.37
2023-04-07T09:35:24.865Z,35.76
2023-04-07T09:38:09.781Z,36.94
2023-04-07T09:40:37.569Z,38.68
2023-04-07T09:43:06.961Z,38.62
2023-04-07T09:45:36.794Z,37.84
2023-04-07T09:48:08.885Z,36.64
2023-04-07T09:50:41.477Z,36.14
2023-04-07T09:53:08.326Z,37.29
2023-04-07T09:55:36.338Z,37.00
2023-04-07T09:58:04.875Z,37.70
2023-04-07T10:00:32.093Z,35.47
2023-04-07T10:02:59.072Z,35.97
2023-04-07T10:05:26.522Z,32.89
2023-04-07T10:07:53.190Z,35.48
2023-04-07T10:10:19.990Z,34.28
2023-04-07T10:12:48.820Z,32.24
2023-04-07T10:15:16.362Z,32.39
2023-04-07T10:17:48.432Z,32.42
2023-04-07T10:20:18.700Z,32.46
2023-04-07T10:22:46.903Z,31.09
2023-04-07T10:25:16.695Z,31.93
2023-04-07T10:28:00.758Z,34.63
2023-04-07T10:30:30.527Z,34.64
2023-04-07T10:32:58.016Z,33.54
2023-04-07T10:35:25.369Z,34.51
2023-04-07T10:38:13.778Z,33.55
2023-04-07T10:40:41.795Z,31.34
2023-04-07T10:43:12.580Z,32.56
2023-04-07T10:45:56.182Z,31.36
2023-04-07T10:48:23.444Z,32.20
2023-04-07T10:51:05.284Z,30.23
2023-04-07T10:53:32.316Z,31.56
2023-04-07T10:55:59.449Z,30.07
2023-04-07T10:58:33.403Z,28.68
2023-04-07T11:00:59.955Z,28.80
2023-04-07T11:03:28.730Z,28.72
2023-04-07T11:06:14.526Z,29.46
2023-04-07T11:08:49.023Z,28.56
2023-04-07T11:11:19.773Z,26.30
2023-04-07T11:13:51.655Z,26.19
2023-04-07T11:16:20.238Z,28.02
2023-04-07T11:18:50.967Z,26.72
2023-04-07T11:21:20.448Z,25.20
2023-04-07T11:23:48.388Z,26.98
2023-04-07T11:26:16.201Z,26.63
2023-04-07T11:28:51.461Z,26.51
2023-04-07T11:31:26.017Z,28.64
2023-04-07T11:33:55.153Z,26.52
2023-04-07T11:36:39.178Z,28.24
2023-04-07T11:39:06.137Z,28.40
2023-04-07T11:41:33.862Z,26.56
2023-04-07T11:44:11.760Z,29.65
2023-04-07T11:47:00.416Z,26.50
2023-04-07T11:49:28.676Z,28.91
2023-04-07T11:52:03.857Z,26.01
2023-04-07T11:54:50.873Z,26.17
2023-04-07T11:57:28.839Z,24.99
2023-04-07T12:00:09.794Z,24.97
2023-04-07T12:02:37.237Z,24.15
2023-04-07T12:05:05.888Z,24.77
2023-04-07T12:07:33.317Z,25.63
2023-04-07T12:10:18.786Z,24.09
2023-04-07T12:12:47.100Z,25.09
2023-04-07T12:15:14.041Z,23.79
2023-04-07T12:17:45.926Z,24.13
2023-04-07T12:20:12.848Z,24.68
2023-04-07T12:22:39.503Z,24.99
2023-04-07T12:25:06.480Z,24.98
2023-04-07T12:27:42.154Z,24.26
2023-04-07T12:30:10.175Z,24.36
2023-04-07T12:32:37.966Z,25.07
2023-04-07T12:35:05.515Z,24.15
2023-04-07T12:37:33.085Z,23.99
2023-04-07T12:40:00.607Z,23.41
2023-04-07T12:42:27.665Z,24.96
2023-04-07T12:44:54.245Z,23.81
2023-04-07T12:47:20.947Z,23.69
2023-04-07T12:49:49.861Z,23.39
2023-04-07T12:52:16.984Z,24.77
2023-04-07T12:54:44.530Z,24.12
2023-04-07T12:57:11.448Z,24.86
2023-04-07T12:59:38.072Z,25.92
2023-04-07T13:02:05.035Z,24.99
2023-04-07T13:04:32.194Z,25.24
2023-04-07T13:06:59.698Z,27.02
2023-04-07T13:09:26.410Z,25.28
2023-04-07T13:11:53.178Z,27.65
2023-04-07T13:14:19.775Z,30.89
2023-04-07T13:16:46.462Z,33.88
2023-04-07T13:19:13.205Z,31.74
2023-04-07T13:24:09.482Z,30.94
2023-04-07T13:26:36.279Z,30.85
2023-04-07T13:29:02.908Z,30.92
2023-04-07T13:31:30.487Z,30.32
2023-04-07T13:33:57.075Z,31.26
2023-04-07T13:36:24.889Z,33.44
2023-04-07T13:38:51.474Z,32.37
2023-04-07T13:41:18.099Z,29.81
2023-04-07T13:43:44.738Z,29.00
2023-04-07T13:46:27.428Z,30.09
2023-04-07T13:48:55.448Z,32.08
2023-04-07T13:51:22.131Z,29.26
2023-04-07T13:53:48.991Z,28.41
2023-04-07T13:56:15.938Z,30.16
2023-04-07T13:58:42.609Z,28.31
2023-04-07T14:01:09.303Z,27.51
2023-04-07T14:03:36.115Z,30.50
2023-04-07T14:06:03.123Z,31.00
2023-04-07T14:08:29.817Z,29.94
2023-04-07T14:10:56.516Z,30.81
2023-04-07T14:13:23.205Z,32.42
2023-04-07T14:15:50.407Z,31.59
2023-04-07T14:18:17.661Z,28.35
2023-04-07T14:20:44.616Z,29.30
2023-04-07T14:23:11.668Z,29.28
2023-04-07T14:25:38.422Z,31.29
2023-04-07T14:28:05.092Z,31.74
2023-04-07T14:30:31.958Z,32.00
2023-04-07T14:32:58.675Z,32.05
2023-04-07T14:35:25.584Z,30.94
2023-04-07T14:37:52.613Z,30.79
2023-04-07T14:40:21.397Z,32.40
2023-04-07T14:42:48.983Z,34.83
2023-04-07T14:45:15.718Z,33.94
2023-04-07T14:47:42.505Z,33.26
2023-04-07T14:50:09.473Z,34.15
2023-04-07T14:52:36.158Z,33.46
2023-04-07T14:55:02.907Z,34.24
2023-04-07T14:57:30.791Z,35.50
2023-04-07T14:59:57.489Z,34.61
2023-04-07T15:02:24.466Z,34.01
2023-04-07T15:04:51.351Z,35.00
2023-04-07T15:07:18.070Z,35.78
2023-04-07T15:09:44.711Z,33.66
2023-04-07T15:12:11.360Z,34.25
2023-04-07T15:14:37.984Z,33.47
2023-04-07T15:17:04.705Z,34.83
2023-04-07T15:19:31.332Z,32.90
2023-04-07T15:21:57.983Z,35.21
2023-04-07T15:24:24.580Z,34.29
2023-04-07T15:26:51.302Z,33.53
2023-04-07T15:29:17.955Z,33.74
2023-04-07T15:31:44.658Z,34.38
2023-04-07T15:34:11.354Z,33.88
2023-04-07T15:36:37.949Z,35.22
2023-04-07T15:39:06.591Z,35.23
2023-04-07T15:41:33.836Z,34.18
2023-04-07T15:44:01.227Z,35.41
2023-04-07T15:46:27.870Z,33.88
2023-04-07T15:48:54.866Z,33.65
2023-04-07T15:51:21.622Z,33.94
2023-04-07T15:53:48.497Z,32.45
2023-04-07T15:56:15.416Z,32.05
2023-04-07T15:58:42.075Z,32.01
2023-04-07T16:01:08.811Z,32.16
2023-04-07T16:03:35.635Z,32.48
2023-04-07T16:06:02.282Z,32.21
2023-04-07T16:08:28.915Z,32.12
2023-04-07T16:10:55.565Z,32.36
2023-04-07T16:13:22.192Z,32.63
2023-04-07T16:15:48.851Z,32.42
2023-04-07T16:18:15.527Z,33.04
2023-04-07T16:20:42.220Z,34.37
2023-04-07T16:23:09.317Z,35.00
2023-04-07T16:25:36.139Z,34.41
2023-04-07T16:28:02.818Z,33.99
2023-04-07T16:30:29.428Z,34.40
2023-04-07T16:32:56.169Z,34.45
2023-04-07T16:35:23.043Z,36.03
2023-04-07T16:37:50.445Z,34.50
2023-04-07T16:40:17.148Z,34.38
2023-04-07T16:42:43.854Z,34.53
2023-04-07T16:45:11.209Z,33.77
2023-04-07T16:47:37.936Z,34.06
2023-04-07T16:50:05.184Z,33.67
2023-04-07T16:52:32.134Z,34.45
2023-04-07T16:55:00.575Z,34.85
2023-04-07T16:57:27.380Z,33.62
2023-04-07T16:59:54.224Z,34.46
2023-04-07T17:02:21.073Z,33.64
2023-04-07T17:04:47.917Z,33.71
2023-04-07T17:07:14.518Z,33.53
2023-04-07T17:09:41.378Z,33.57
2023-04-07T17:12:07.988Z,33.88
2023-04-07T17:14:34.935Z,33.13
2023-04-07T17:17:01.933Z,33.11
2023-04-07T17:19:28.948Z,33.10
2023-04-07T17:21:55.609Z,32.98
2023-04-07T17:24:22.866Z,32.77
2023-04-07T17:26:49.595Z,32.87
2023-04-07T17:29:17.319Z,32.82
2023-04-07T17:31:44.417Z,32.78
2023-04-07T17:34:11.974Z,32.54
2023-04-07T17:36:38.917Z,32.67
2023-04-07T17:39:05.593Z,32.93
2023-04-07T17:41:35.247Z,33.04
2023-04-07T17:44:02.247Z,33.36
2023-04-07T17:46:29.433Z,33.71
2023-04-07T17:48:59.416Z,33.56
2023-04-07T17:51:27.175Z,34.03
2023-04-07T17:53:54.741Z,33.84
2023-04-07T17:56:22.254Z,34.10
2023-04-07T17:58:49.063Z,34.21
2023-04-07T18:01:17.073Z,34.54
2023-04-07T18:03:43.917Z,34.83
2023-04-07T18:06:15.168Z,34.64
2023-04-07T18:08:42.102Z,35.33
2023-04-07T18:11:08.918Z,35.60
2023-04-07T18:13:35.771Z,35.47
2023-04-07T18:16:02.794Z,35.59
2023-04-07T18:18:29.461Z,35.39
2023-04-07T18:20:56.052Z,35.19
2023-04-07T18:23:22.744Z,35.46
2023-04-07T18:25:49.650Z,35.80
2023-04-07T18:28:17.215Z,36.37
2023-04-07T18:30:44.002Z,36.74
2023-04-07T18:33:10.738Z,37.41
2023-04-07T18:35:37.782Z,37.14
2023-04-07T18:38:04.879Z,36.71
2023-04-07T18:40:33.511Z,37.12
2023-04-07T18:43:00.242Z,37.70
2023-04-07T18:45:26.977Z,38.17
2023-04-07T18:47:53.697Z,37.43
2023-04-07T18:50:20.391Z,37.79
2023-04-07T18:52:46.974Z,37.55
2023-04-07T18:55:14.106Z,37.43
2023-04-07T18:57:40.721Z,37.29
2023-04-07T19:00:08.587Z,37.25
2023-04-07T19:02:35.719Z,37.32
2023-04-07T19:05:02.493Z,38.23
2023-04-07T19:07:29.160Z,38.22
2023-04-07T19:09:56.053Z,38.22
2023-04-07T19:12:22.666Z,37.88
2023-04-07T19:14:49.265Z,37.77
2023-04-07T19:17:16.418Z,38.11
2023-04-07T19:19:43.034Z,38.10
2023-04-07T19:22:09.655Z,38.42
2023-04-07T19:24:36.338Z,38.22
2023-04-07T19:27:03.367Z,38.67
2023-04-07T19:29:29.948Z,39.17
2023-04-07T19:31:57.472Z,39.03
2023-04-07T19:34:24.157Z,38.89
2023-04-07T19:36:50.869Z,39.07
2023-04-07T19:39:17.449Z,39.39
2023-04-07T19:41:44.110Z,39.23
2023-04-07T19:44:10.873Z,39.16
2023-04-07T19:46:37.633Z,39.07
2023-04-07T19:49:04.275Z,39.21
2023-04-07T19:51:31.184Z,39.69
2023-04-07T19:53:57.879Z,39.48
2023-04-07T19:56:25.180Z,39.76
2023-04-07T19:58:51.915Z,39.39
2023-04-07T20:01:19.091Z,39.97
2023-04-07T20:03:46.912Z,39.62
2023-04-07T20:06:15.173Z,39.67
2023-04-07T20:08:42.469Z,39.75
2023-04-07T20:11:13.225Z,39.76
2023-04-07T20:13:41.295Z,40.70
2023-04-07T20:16:08.302Z,41.29
2023-04-07T20:18:35.005Z,41.32
2023-04-07T20:21:08.046Z,41.26
2023-04-07T20:23:34.713Z,40.97
2023-04-07T20:26:04.353Z,40.93
2023-04-07T20:28:31.318Z,41.69
2023-04-07T20:30:57.969Z,41.39
2023-04-07T20:33:24.649Z,41.51
2023-04-07T20:35:51.379Z,41.58
2023-04-07T20:38:18.837Z,41.50
2023-04-07T20:40:45.560Z,41.87
2023-04-07T20:43:12.326Z,41.42
2023-04-07T20:45:39.020Z,41.38
2023-04-07T20:48:05.878Z,41.62
2023-04-07T20:50:33.296Z,41.31
2023-04-07T20:52:59.938Z,41.95
2023-04-07T20:55:27.323Z,41.72
2023-04-07T20:57:54.771Z,42.19
2023-04-07T21:00:21.598Z,41.94
2023-04-07T21:02:48.703Z,42.27
2023-04-07T21:05:15.579Z,42.43
2023-04-07T21:07:42.382Z,42.06
2023-04-07T21:10:09.884Z,42.99
2023-04-07T21:12:36.608Z,42.40
2023-04-07T21:15:03.451Z,42.20
2023-04-07T21:17:30.102Z,42.37
2023-04-07T21:19:56.752Z,42.40
2023-04-07T21:22:23.391Z,43.23
2023-04-07T21:24:50.045Z,45.13
2023-04-07T21:27:16.651Z,44.77
2023-04-07T21:29:43.322Z,44.05
2023-04-07T21:32:10.651Z,44.24
2023-04-07T21:34:37.319Z,44.58
2023-04-07T21:37:03.994Z,46.22
2023-04-07T21:39:30.929Z,44.39
2023-04-07T21:41:57.672Z,44.59
2023-04-07T21:44:24.516Z,44.51
2023-04-07T21:46:51.328Z,45.17
2023-04-07T21:49:22.009Z,44.26
2023-04-07T21:51:49.110Z,44.49
2023-04-07T21:54:16.057Z,44.11
2023-04-07T21:56:42.964Z,44.22
2023-04-07T21:59:09.590Z,44.29
2023-04-07T22:01:36.402Z,44.13
2023-04-07T22:04:03.200Z,43.99
2023-04-07T22:06:30.106Z,45.50
2023-04-07T22:09:01.933Z,45.20
2023-04-07T22:11:29.594Z,44.69
2023-04-07T22:13:56.305Z,45.18
2023-04-07T22:16:23.065Z,44.67
2023-04-07T22:18:50.417Z,44.65
2023-04-07T22:21:17.591Z,44.50
2023-04-07T22:23:44.693Z,45.23
2023-04-07T22:26:11.442Z,45.09
2023-04-07T22:28:38.103Z,44.94
2023-04-07T22:31:04.947Z,45.20
2023-04-07T22:33:31.742Z,46.70
2023-04-07T22:35:58.498Z,45.26
2023-04-07T22:38:25.397Z,45.22
2023-04-07T22:40:52.042Z,45.84
2023-04-07T22:43:18.826Z,45.64
2023-04-07T22:45:45.545Z,46.02
2023-04-07T22:48:12.502Z,47.04
2023-04-07T22:50:39.199Z,47.01
2023-04-07T22:53:07.421Z,47.44
2023-04-07T22:55:36.037Z,46.50
2023-04-07T22:58:02.782Z,46.87
2023-04-07T23:00:29.498Z,46.89
2023-04-07T23:02:58.784Z,46.30
2023-04-07T23:05:25.744Z,46.36
2023-04-07T23:07:53.417Z,47.31
2023-04-07T23:10:20.028Z,47.74
2023-04-07T23:12:46.672Z,48.04
2023-04-07T23:15:13.374Z,49.42
2023-04-07T23:17:40.174Z,47.93
2023-04-07T23:20:07.952Z,48.93
2023-04-07T23:22:34.586Z,48.88
2023-04-07T23:25:01.585Z,49.45
2023-04-07T23:27:28.200Z,49.72
2023-04-07T23:29:54.818Z,49.00
2023-04-07T23:32:21.614Z,50.25
2023-04-07T23:34:48.242Z,49.58
2023-04-07T23:37:14.851Z,49.24
2023-04-07T23:39:41.529Z,48.63
2023-04-07T23:42:08.296Z,48.00
2023-04-07T23:44:34.967Z,48.22
2023-04-07T23:47:01.595Z,48.76
2023-04-07T23:49:29.292Z,47.72
2023-04-07T23:51:55.923Z,48.88
2023-04-07T23:54:22.589Z,48.61
2023-04-07T23:56:49.228Z,48.06
2023-04-07T23:59:15.944Z,48.25
